createdAt,value
2023-02-08T00:00:40.115Z,6.95
2023-02-08T00:03:07.293Z,6.43
2023-02-08T00:05:33.925Z,5.28
2023-02-08T00:08:00.631Z,5.60
2023-02-08T00:10:26.981Z,7.65
2023-02-08T00:12:53.544Z,4.72
2023-02-08T00:15:19.965Z,5.70
2023-02-08T00:17:46.390Z,4.15
2023-02-08T00:20:13.475Z,3.58
2023-02-08T00:22:40.060Z,5.80
2023-02-08T00:25:07.545Z,5.75
2023-02-08T00:27:34.376Z,5.20
2023-02-08T00:30:00.770Z,6.38
2023-02-08T00:32:27.261Z,6.55
2023-02-08T00:34:53.661Z,7.38
2023-02-08T00:37:20.036Z,5.60
2023-02-08T00:39:46.386Z,5.10
2023-02-08T00:42:12.808Z,7.65
2023-02-08T00:44:39.181Z,5.22
2023-02-08T00:47:05.557Z,5.53
2023-02-08T00:49:32.018Z,5.32
2023-02-08T00:51:58.360Z,6.20
2023-02-08T00:54:25.141Z,6.60
2023-02-08T00:56:51.553Z,5.28
2023-02-08T00:59:17.908Z,5.70
2023-02-08T01:01:44.462Z,5.85
2023-02-08T01:04:10.874Z,4.80
2023-02-08T01:06:37.245Z,4.68
2023-02-08T01:09:03.763Z,5.80
2023-02-08T01:11:30.073Z,6.93
2023-02-08T01:13:57.513Z,5.10
2023-02-08T01:16:26.608Z,6.28
2023-02-08T01:18:54.743Z,6.68
2023-02-08T01:21:23.911Z,5.03
2023-02-08T01:23:50.879Z,7.03
2023-02-08T01:26:18.911Z,4.97
2023-02-08T01:28:45.574Z,4.93
2023-02-08T01:31:15.342Z,6.63
2023-02-08T01:33:42.431Z,3.22
2023-02-08T01:36:09.637Z,4.85
2023-02-08T01:38:37.358Z,5.45
2023-02-08T01:41:05.553Z,6.63
2023-02-08T01:43:34.756Z,5.50
2023-02-08T01:46:01.621Z,5.57
2023-02-08T01:48:37.069Z,8.63
2023-02-08T01:51:10.428Z,6.68
2023-02-08T01:53:38.119Z,6.85
2023-02-08T01:56:08.207Z,6.72
2023-02-08T01:58:41.707Z,4.45
2023-02-08T02:01:08.914Z,6.30
2023-02-08T02:03:35.456Z,3.85
2023-02-08T02:06:08.515Z,6.47
2023-02-08T02:08:35.173Z,4.30
2023-02-08T02:11:01.710Z,5.78
2023-02-08T02:13:28.906Z,8.27
2023-02-08T02:15:55.590Z,7.93
2023-02-08T02:18:28.388Z,4.80
2023-02-08T02:21:07.118Z,4.32
2023-02-08T02:24:00.118Z,7.15
2023-02-08T02:26:51.030Z,5.40
2023-02-08T02:29:41.991Z,3.13
2023-02-08T02:32:33.978Z,3.90
2023-02-08T02:35:12.764Z,7.25
2023-02-08T02:38:01.205Z,4.50
2023-02-08T02:40:43.965Z,4.95
2023-02-08T02:43:43.874Z,5.57
2023-02-08T02:46:17.241Z,4.20
2023-02-08T02:49:16.098Z,4.72
2023-02-08T02:51:54.086Z,5.30
2023-02-08T02:54:24.513Z,4.53
2023-02-08T02:56:53.888Z,3.70
2023-02-08T02:59:21.623Z,4.00
2023-02-08T03:01:48.553Z,4.18
2023-02-08T03:04:39.208Z,4.90
2023-02-08T03:07:20.790Z,5.53
2023-02-08T03:10:08.697Z,6.85
2023-02-08T03:13:03.641Z,4.18
2023-02-08T03:15:29.905Z,5.57
2023-02-08T03:18:18.631Z,4.38
2023-02-08T03:20:53.596Z,6.63
2023-02-08T03:23:27.838Z,5.18
2023-02-08T03:26:11.178Z,6.60
2023-02-08T03:28:58.476Z,6.25
2023-02-08T03:31:32.605Z,4.78
2023-02-08T03:34:08.502Z,2.80
2023-02-08T03:36:45.051Z,7.20
2023-02-08T03:39:18.207Z,3.58
2023-02-08T03:41:47.830Z,5.18
2023-02-08T03:44:25.251Z,5.63
2023-02-08T03:47:02.723Z,6.22
2023-02-08T03:49:34.093Z,2.83
2023-02-08T03:52:03.430Z,4.78
2023-02-08T03:54:33.576Z,5.70
2023-02-08T03:57:10.506Z,3.47
2023-02-08T03:59:41.077Z,3.65
2023-02-08T04:02:11.415Z,3.38
2023-02-08T04:04:43.569Z,6.85
2023-02-08T04:07:10.350Z,4.03
2023-02-08T04:09:38.801Z,7.30
2023-02-08T04:12:06.073Z,4.50
2023-02-08T04:14:32.563Z,5.78
2023-02-08T04:16:58.853Z,6.22
2023-02-08T04:19:25.238Z,6.82
2023-02-08T04:21:51.551Z,6.32
2023-02-08T04:24:17.930Z,5.10
2023-02-08T04:26:44.347Z,4.82
2023-02-08T04:29:10.636Z,3.85
2023-02-08T04:31:37.443Z,5.90
2023-02-08T04:34:04.294Z,5.68
2023-02-08T04:36:30.751Z,4.95
2023-02-08T04:38:57.430Z,6.90
2023-02-08T04:41:23.749Z,6.25
2023-02-08T04:43:50.500Z,5.60
2023-02-08T04:46:17.112Z,3.75
2023-02-08T04:48:43.805Z,4.85
2023-02-08T04:51:10.217Z,5.93
2023-02-08T04:53:36.537Z,4.03
2023-02-08T04:56:03.569Z,3.30
2023-02-08T04:58:30.342Z,2.97
2023-02-08T05:00:56.730Z,2.80
2023-02-08T05:03:23.030Z,2.80
2023-02-08T05:05:59.688Z,2.85
2023-02-08T05:08:26.789Z,1.95
2023-02-08T05:10:53.155Z,2.95
2023-02-08T05:13:19.543Z,4.00
2023-02-08T05:15:45.882Z,2.53
2023-02-08T05:18:12.377Z,2.92
2023-02-08T05:20:38.973Z,2.00
2023-02-08T05:23:05.597Z,2.80
2023-02-08T05:25:32.067Z,2.22
2023-02-08T05:27:59.926Z,1.60
2023-02-08T05:30:26.415Z,4.47
2023-02-08T05:32:52.835Z,4.20
2023-02-08T05:35:19.226Z,2.67
2023-02-08T05:37:45.537Z,0.90
2023-02-08T05:40:12.032Z,3.15
2023-02-08T05:42:38.573Z,1.98
2023-02-08T05:45:05.865Z,2.00
2023-02-08T05:47:32.249Z,2.90
2023-02-08T05:49:58.723Z,2.25
2023-02-08T05:52:25.012Z,2.30
2023-02-08T05:54:51.427Z,3.28
2023-02-08T05:57:17.732Z,2.10
2023-02-08T05:59:44.372Z,1.90
2023-02-08T06:02:10.672Z,2.37
2023-02-08T06:04:39.015Z,2.25
2023-02-08T06:07:05.973Z,0.75
2023-02-08T06:09:32.324Z,2.60
2023-02-08T06:11:58.726Z,3.00
2023-02-08T06:14:25.194Z,2.10
2023-02-08T06:16:51.669Z,3.65
2023-02-08T06:19:18.155Z,2.63
2023-02-08T06:21:44.445Z,2.23
2023-02-08T06:24:11.087Z,1.83
2023-02-08T06:26:37.456Z,2.33
2023-02-08T06:29:03.858Z,2.92
2023-02-08T06:31:30.319Z,2.53
2023-02-08T06:33:56.795Z,1.65
2023-02-08T06:36:23.132Z,3.40
2023-02-08T06:38:51.268Z,2.67
2023-02-08T06:41:18.060Z,3.08
2023-02-08T06:43:44.526Z,2.30
2023-02-08T06:46:11.159Z,2.78
2023-02-08T06:48:37.848Z,5.43
2023-02-08T06:51:04.815Z,2.33
2023-02-08T06:53:31.362Z,2.03
2023-02-08T06:55:57.844Z,2.20
2023-02-08T06:58:24.183Z,2.50
2023-02-08T07:00:50.661Z,2.85
2023-02-08T07:03:17.081Z,2.63
2023-02-08T07:05:55.275Z,2.25
2023-02-08T07:08:30.114Z,2.33
2023-02-08T07:10:56.407Z,3.45
2023-02-08T07:13:22.787Z,5.00
2023-02-08T07:15:49.204Z,2.35
2023-02-08T07:18:15.873Z,3.57
2023-02-08T07:20:42.359Z,1.65
2023-02-08T07:23:08.716Z,2.17
2023-02-08T07:25:34.998Z,3.13
2023-02-08T07:28:02.072Z,1.58
2023-02-08T07:30:29.270Z,4.80
2023-02-08T07:32:55.886Z,4.80
2023-02-08T07:35:22.263Z,3.50
2023-02-08T07:37:48.838Z,2.47
2023-02-08T07:40:15.621Z,6.07
2023-02-08T07:42:42.019Z,4.20
2023-02-08T07:45:08.626Z,5.05
2023-02-08T07:47:35.052Z,4.50
2023-02-08T07:50:01.808Z,2.83
2023-02-08T07:52:28.270Z,4.55
2023-02-08T07:54:54.661Z,2.67
2023-02-08T07:57:20.967Z,4.68
2023-02-08T07:59:48.044Z,3.72
2023-02-08T08:02:15.595Z,4.72
2023-02-08T08:04:42.391Z,4.53
2023-02-08T08:07:10.053Z,4.32
2023-02-08T08:09:36.390Z,5.20
2023-02-08T08:12:03.067Z,6.90
2023-02-08T08:14:29.874Z,4.60
2023-02-08T08:16:56.694Z,3.83
2023-02-08T08:19:23.058Z,4.32
2023-02-08T08:21:49.364Z,4.72
2023-02-08T08:24:15.994Z,3.30
2023-02-08T08:26:42.389Z,5.18
2023-02-08T08:29:08.842Z,4.20
2023-02-08T08:31:35.456Z,6.45
2023-02-08T08:34:02.034Z,4.70
2023-02-08T08:36:28.369Z,5.55
2023-02-08T08:38:54.738Z,3.17
2023-02-08T08:41:21.514Z,4.75
2023-02-08T08:43:47.946Z,4.15
2023-02-08T08:46:14.729Z,4.57
2023-02-08T08:48:41.132Z,4.18
2023-02-08T08:51:07.998Z,4.60
2023-02-08T08:53:35.274Z,4.95
2023-02-08T08:56:01.566Z,5.22
2023-02-08T08:58:28.306Z,4.43
2023-02-08T09:00:59.589Z,4.63
2023-02-08T09:03:27.645Z,3.83
2023-02-08T09:05:54.526Z,5.03
2023-02-08T09:08:21.258Z,5.88
2023-02-08T09:10:47.562Z,7.35
2023-02-08T09:13:13.893Z,5.50
2023-02-08T09:15:41.404Z,7.13
2023-02-08T09:18:07.811Z,4.20
2023-02-08T09:20:37.921Z,4.82
2023-02-08T09:23:04.222Z,5.95
2023-02-08T09:25:30.724Z,4.57
2023-02-08T09:27:57.028Z,4.15
2023-02-08T09:30:23.994Z,7.25
2023-02-08T09:32:50.294Z,4.55
2023-02-08T09:35:16.807Z,6.72
2023-02-08T09:37:44.551Z,4.45
2023-02-08T09:40:25.796Z,6.13
2023-02-08T09:43:03.902Z,7.80
2023-02-08T09:45:45.328Z,6.78
2023-02-08T09:48:31.948Z,7.25
2023-02-08T09:51:22.161Z,9.57
2023-02-08T09:53:53.754Z,6.82
2023-02-08T09:56:28.334Z,7.75
2023-02-08T09:58:56.427Z,7.43
2023-02-08T10:01:26.802Z,7.13
2023-02-08T10:04:15.118Z,6.00
2023-02-08T10:06:41.667Z,6.78
2023-02-08T10:09:14.131Z,6.60
2023-02-08T10:11:49.697Z,6.93
2023-02-08T10:17:15.441Z,6.20
2023-02-08T10:20:00.462Z,6.97
2023-02-08T10:22:52.807Z,8.50
2023-02-08T10:25:46.648Z,4.95
2023-02-08T10:28:52.328Z,8.48
2023-02-08T10:31:36.081Z,9.05
2023-02-08T10:34:42.578Z,4.88
2023-02-08T10:37:15.618Z,4.35
2023-02-08T10:39:42.776Z,6.47
2023-02-08T10:42:21.765Z,7.68
2023-02-08T10:44:54.162Z,4.30
2023-02-08T10:47:38.605Z,4.72
2023-02-08T10:50:34.077Z,4.40
2023-02-08T10:53:00.481Z,5.80
2023-02-08T10:55:27.116Z,6.38
2023-02-08T10:57:59.377Z,4.78
2023-02-08T11:00:33.529Z,5.03
2023-02-08T11:03:12.381Z,6.43
2023-02-08T11:05:38.850Z,4.93
2023-02-08T11:08:11.831Z,5.68
2023-02-08T11:10:39.643Z,7.05
2023-02-08T11:13:18.443Z,4.82
2023-02-08T11:15:47.790Z,5.72
2023-02-08T11:18:36.345Z,5.72
2023-02-08T11:21:08.372Z,6.10
2023-02-08T11:23:38.109Z,7.50
2023-02-08T11:26:19.639Z,6.65
2023-02-08T11:29:01.134Z,5.53
2023-02-08T11:31:27.856Z,4.90
2023-02-08T11:34:11.586Z,5.50
2023-02-08T11:36:45.543Z,3.90
2023-02-08T11:39:38.336Z,6.53
2023-02-08T11:42:06.203Z,5.03
2023-02-08T11:44:36.983Z,5.38
2023-02-08T11:47:07.831Z,5.60
2023-02-08T11:49:40.724Z,5.30
2023-02-08T11:52:20.077Z,7.45
2023-02-08T11:54:46.634Z,6.85
2023-02-08T11:57:25.726Z,7.13
2023-02-08T12:00:19.394Z,7.13
2023-02-08T12:02:46.358Z,7.45
2023-02-08T12:05:16.838Z,6.35
2023-02-08T12:07:52.864Z,8.45
2023-02-08T12:11:03.369Z,6.18
2023-02-08T12:13:42.196Z,5.93
2023-02-08T12:16:42.492Z,5.85
2023-02-08T12:19:23.128Z,5.70
2023-02-08T12:22:06.328Z,6.20
2023-02-08T12:24:40.924Z,5.50
2023-02-08T12:27:35.151Z,7.22
2023-02-08T12:30:20.309Z,6.30
2023-02-08T12:33:05.469Z,5.97
2023-02-08T12:36:19.841Z,5.53
2023-02-08T12:39:17.863Z,5.28
2023-02-08T12:42:11.596Z,6.05
2023-02-08T12:44:40.929Z,4.40
2023-02-08T12:47:25.598Z,4.80
2023-02-08T12:50:01.055Z,4.68
2023-02-08T12:55:14.865Z,3.47
2023-02-08T12:57:47.284Z,5.55
2023-02-08T13:00:19.487Z,5.50
2023-02-08T13:03:13.083Z,5.10
2023-02-08T13:05:53.517Z,5.38
2023-02-08T13:08:40.742Z,4.22
2023-02-08T13:11:20.094Z,5.75
2023-02-08T13:14:02.511Z,3.83
2023-02-08T13:16:35.783Z,5.47
2023-02-08T13:19:18.686Z,4.78
2023-02-08T13:21:46.080Z,3.65
2023-02-08T13:24:31.339Z,4.85
2023-02-08T13:26:57.685Z,5.07
2023-02-08T13:29:27.878Z,5.60
2023-02-08T13:32:02.678Z,5.55
2023-02-08T13:34:48.369Z,7.67
2023-02-08T13:37:35.677Z,4.43
2023-02-08T13:40:19.611Z,6.32
2023-02-08T13:42:57.417Z,5.30
2023-02-08T13:45:29.517Z,4.55
2023-02-08T13:48:00.189Z,4.38
2023-02-08T13:50:40.907Z,2.97
2023-02-08T13:53:07.636Z,3.97
2023-02-08T13:55:58.004Z,3.75
2023-02-08T13:58:34.653Z,3.17
2023-02-08T14:01:13.797Z,4.15
2023-02-08T14:03:40.824Z,3.47
2023-02-08T14:06:18.579Z,3.83
2023-02-08T14:09:04.528Z,3.95
2023-02-08T14:14:24.142Z,2.80
2023-02-08T14:17:28.252Z,2.85
2023-02-08T14:20:04.940Z,4.60
2023-02-08T14:22:38.165Z,3.22
2023-02-08T14:25:08.277Z,4.28
2023-02-08T14:27:43.380Z,3.08
2023-02-08T14:30:15.973Z,4.60
2023-02-08T14:32:46.712Z,4.97
2023-02-08T14:35:12.988Z,5.30
2023-02-08T14:37:41.370Z,5.03
2023-02-08T14:40:16.878Z,4.13
2023-02-08T14:45:44.471Z,3.75
2023-02-08T14:48:24.223Z,2.97
2023-02-08T14:51:06.773Z,3.70
2023-02-08T14:53:42.184Z,3.63
2023-02-08T14:59:08.312Z,3.80
2023-02-08T15:01:48.421Z,5.15
2023-02-08T15:04:16.707Z,2.55
2023-02-08T15:07:23.498Z,4.63
2023-02-08T15:12:26.461Z,4.45
2023-02-08T15:14:55.455Z,4.93
2023-02-08T15:17:43.250Z,4.53
2023-02-08T15:20:20.072Z,4.38
2023-02-08T15:22:46.442Z,4.00
2023-02-08T15:25:27.520Z,5.10
2023-02-08T15:28:00.469Z,4.43
2023-02-08T15:30:34.194Z,4.53
2023-02-08T15:33:03.365Z,5.40
2023-02-08T15:35:32.969Z,6.05
2023-02-08T15:37:59.521Z,5.30
2023-02-08T15:40:30.352Z,5.82
2023-02-08T15:43:08.734Z,5.53
2023-02-08T15:45:35.793Z,6.00
2023-02-08T15:48:02.719Z,7.20
2023-02-08T15:50:31.237Z,5.32
2023-02-08T15:53:01.023Z,5.68
2023-02-08T15:55:32.459Z,6.18
2023-02-08T15:58:27.205Z,5.38
2023-02-08T16:00:53.801Z,5.80
2023-02-08T16:03:22.956Z,7.15
2023-02-08T16:05:52.083Z,7.05
2023-02-08T16:08:24.266Z,5.82
2023-02-08T16:10:55.046Z,5.95
2023-02-08T16:13:28.604Z,6.00
2023-02-08T16:16:08.091Z,6.20
2023-02-08T16:18:41.146Z,5.95
2023-02-08T16:21:21.431Z,6.95
2023-02-08T16:24:00.617Z,5.50
2023-02-08T16:26:30.882Z,6.75
2023-02-08T16:29:04.190Z,5.50
2023-02-08T16:31:32.610Z,6.60
2023-02-08T16:34:15.029Z,5.43
2023-02-08T16:36:45.454Z,7.22
2023-02-08T16:39:14.908Z,7.50
2023-02-08T16:41:58.810Z,7.95
2023-02-08T16:44:36.058Z,6.80
2023-02-08T16:47:26.144Z,5.70
2023-02-08T16:49:52.464Z,6.35
2023-02-08T16:52:18.862Z,6.10
2023-02-08T16:54:45.472Z,4.65
2023-02-08T16:57:11.887Z,4.68
2023-02-08T16:59:38.367Z,7.25
2023-02-08T17:02:11.646Z,7.20
2023-02-08T17:04:38.020Z,7.07
2023-02-08T17:07:04.772Z,4.85
2023-02-08T17:09:31.112Z,8.68
2023-02-08T17:11:57.568Z,5.25
2023-02-08T17:14:23.911Z,6.50
2023-02-08T17:16:50.330Z,6.90
2023-02-08T17:19:18.021Z,5.10
2023-02-08T17:21:44.610Z,5.90
2023-02-08T17:24:11.029Z,6.18
2023-02-08T17:26:41.447Z,8.10
2023-02-08T17:29:08.077Z,6.85
2023-02-08T17:31:34.427Z,5.53
2023-02-08T17:34:00.762Z,4.57
2023-02-08T17:36:27.107Z,6.72
2023-02-08T17:38:53.449Z,4.38
2023-02-08T17:41:20.759Z,5.90
2023-02-08T17:43:52.094Z,8.20
2023-02-08T17:46:22.210Z,4.30
2023-02-08T17:48:49.860Z,5.85
2023-02-08T17:51:21.805Z,5.97
2023-02-08T17:53:48.582Z,5.35
2023-02-08T17:56:21.116Z,5.57
2023-02-08T17:58:51.362Z,4.93
2023-02-08T18:01:25.125Z,6.82
2023-02-08T18:03:52.834Z,7.20
2023-02-08T18:06:20.329Z,4.47
2023-02-08T18:08:46.893Z,4.57
2023-02-08T18:11:17.247Z,5.20
2023-02-08T18:13:43.665Z,6.38
2023-02-08T18:16:16.048Z,6.13
2023-02-08T18:18:42.948Z,5.85
2023-02-08T18:21:17.523Z,4.88
2023-02-08T18:23:44.234Z,6.88
2023-02-08T18:26:13.649Z,7.47
2023-02-08T18:28:40.283Z,7.18
2023-02-08T18:31:09.146Z,5.50
2023-02-08T18:33:37.145Z,5.93
2023-02-08T18:36:04.825Z,4.75
2023-02-08T18:38:31.121Z,8.60
2023-02-08T18:40:57.702Z,6.35
2023-02-08T18:43:24.331Z,4.95
2023-02-08T18:46:01.887Z,6.30
2023-02-08T18:48:28.662Z,5.72
2023-02-08T18:50:56.638Z,6.15
2023-02-08T18:53:23.031Z,5.55
2023-02-08T18:55:57.239Z,7.22
2023-02-08T18:58:24.730Z,7.10
2023-02-08T19:00:51.377Z,7.38
2023-02-08T19:03:18.935Z,6.93
2023-02-08T19:05:45.855Z,6.95
2023-02-08T19:08:14.139Z,6.93
2023-02-08T19:10:42.077Z,6.50
2023-02-08T19:13:08.936Z,7.93
2023-02-08T19:15:37.066Z,6.28
2023-02-08T19:18:04.226Z,4.85
2023-02-08T19:20:34.829Z,5.40
2023-02-08T19:23:01.198Z,5.60
2023-02-08T19:25:27.501Z,4.85
2023-02-08T19:27:53.844Z,6.57
2023-02-08T19:30:20.346Z,7.80
2023-02-08T19:32:46.650Z,8.65
2023-02-08T19:35:13.783Z,7.07
2023-02-08T19:37:44.352Z,8.50
2023-02-08T19:40:11.562Z,7.05
2023-02-08T19:42:38.503Z,3.58
2023-02-08T19:45:05.844Z,5.70
2023-02-08T19:47:50.225Z,5.28
2023-02-08T19:50:17.717Z,7.00
2023-02-08T19:52:44.062Z,8.90
2023-02-08T19:55:10.603Z,5.25
2023-02-08T19:57:43.320Z,5.78
2023-02-08T20:00:22.471Z,5.65
2023-02-08T20:02:49.616Z,8.25
2023-02-08T20:05:16.355Z,6.38
2023-02-08T20:07:42.669Z,5.63
2023-02-08T20:10:09.556Z,5.28
2023-02-08T20:12:35.956Z,5.68
2023-02-08T20:15:02.337Z,7.30
2023-02-08T20:17:29.731Z,5.90
2023-02-08T20:19:56.074Z,6.97
2023-02-08T20:22:22.508Z,8.02
2023-02-08T20:24:48.931Z,9.98
2023-02-08T20:27:15.236Z,8.30
2023-02-08T20:29:41.767Z,5.97
2023-02-08T20:32:08.166Z,6.63
2023-02-08T20:34:34.640Z,7.32
2023-02-08T20:37:07.375Z,6.25
2023-02-08T20:39:35.884Z,7.78
2023-02-08T20:42:02.589Z,6.32
2023-02-08T20:44:28.919Z,8.25
2023-02-08T20:46:55.385Z,7.32
2023-02-08T20:49:21.769Z,5.75
2023-02-08T20:51:50.960Z,5.78
2023-02-08T20:54:17.249Z,6.47
2023-02-08T20:56:43.792Z,6.60
2023-02-08T20:59:11.815Z,6.60
2023-02-08T21:01:38.298Z,7.28
2023-02-08T21:04:05.179Z,6.20
2023-02-08T21:06:33.832Z,5.30
2023-02-08T21:09:05.103Z,6.80
2023-02-08T21:11:32.627Z,6.53
2023-02-08T21:14:00.061Z,8.27
2023-02-08T21:16:27.298Z,5.93
2023-02-08T21:18:54.343Z,6.70
2023-02-08T21:21:21.264Z,5.32
2023-02-08T21:23:47.752Z,7.78
2023-02-08T21:26:17.286Z,6.18
2023-02-08T21:28:44.500Z,9.32
2023-02-08T21:31:17.266Z,6.53
2023-02-08T21:33:44.523Z,9.73
2023-02-08T21:36:19.761Z,5.28
2023-02-08T21:41:18.458Z,4.35
2023-02-08T21:43:44.805Z,7.85
2023-02-08T21:46:11.727Z,6.28
2023-02-08T21:48:38.267Z,6.80
2023-02-08T21:51:04.838Z,8.13
2023-02-08T21:53:31.215Z,8.35
2023-02-08T21:55:57.941Z,7.38
2023-02-08T21:58:24.322Z,7.72
2023-02-08T22:00:50.650Z,6.63
2023-02-08T22:03:17.740Z,7.32
2023-02-08T22:05:46.457Z,7.70
2023-02-08T22:08:13.265Z,8.15
2023-02-08T22:10:42.794Z,6.57
2023-02-08T22:13:13.742Z,7.25
2023-02-08T22:15:40.092Z,6.25
2023-02-08T22:18:06.435Z,6.82
2023-02-08T22:20:32.749Z,6.07
2023-02-08T22:22:59.253Z,8.02
2023-02-08T22:25:25.611Z,5.85
2023-02-08T22:27:51.964Z,6.13
2023-02-08T22:30:19.538Z,8.75
2023-02-08T22:32:47.300Z,5.72
2023-02-08T22:35:14.500Z,8.82
2023-02-08T22:37:41.272Z,6.88
2023-02-08T22:40:09.067Z,6.95
2023-02-08T22:42:35.688Z,6.10
2023-02-08T22:45:03.122Z,6.80
2023-02-08T22:47:29.470Z,7.45
2023-02-08T22:49:56.873Z,8.38
2023-02-08T22:52:23.200Z,9.52
2023-02-08T22:54:51.060Z,9.65
2023-02-08T22:57:17.907Z,5.25
2023-02-08T22:59:44.228Z,3.90
2023-02-08T23:02:10.609Z,8.20
2023-02-08T23:04:37.949Z,4.32
2023-02-08T23:07:04.843Z,5.85
2023-02-08T23:09:31.172Z,6.47
2023-02-08T23:11:57.681Z,6.40
2023-02-08T23:14:24.044Z,8.38
2023-02-08T23:16:50.363Z,6.90
2023-02-08T23:19:18.340Z,7.43
2023-02-08T23:21:44.805Z,8.30
2023-02-08T23:24:11.500Z,8.00
2023-02-08T23:26:38.849Z,7.32
2023-02-08T23:29:05.744Z,8.45
2023-02-08T23:31:32.276Z,5.90
2023-02-08T23:33:59.696Z,8.50
2023-02-08T23:36:26.232Z,10.20
2023-02-08T23:38:52.686Z,9.27
2023-02-08T23:41:21.617Z,6.28
2023-02-08T23:43:49.781Z,8.43
2023-02-08T23:46:23.574Z,5.43
2023-02-08T23:48:50.660Z,9.88
2023-02-08T23:51:19.955Z,7.30
2023-02-08T23:53:47.214Z,6.30
2023-02-08T23:56:15.718Z,8.30
2023-02-08T23:58:43.575Z,8.65
